KTCM/TCM METAR and TAF weather

Enter ICAO airport designator
Station Type Date Time Source
KTCM METAR 2021/07/29 02:58 UTC NOAA

KTCM 290258Z AUTO 04004KT 10SM CLR 28/08 A3004 RMK AO2 SLP174 T02810079 55007 $


Station Type Date Time Source
KTCM Decoded METAR 2021/07/29 02:58 UTC NOAA

Tacoma / McChord Air Force Base, WA, United States (KTCM) 47-09N 122-29W 87M
Jul 28, 2021 - 10:58 PM EDT / 2021.07.29 0258 UTC
Wind: from the NE (040 degrees) at 5 MPH (4 KT):0
Visibility: 10 mile(s):0
Sky conditions: clear
Temperature: 82.6 F (28.1 C)
Dew Point: 46.2 F (7.9 C)
Relative Humidity: 28%
Pressure (altimeter): 30.04 in. Hg (1017 hPa)
Pressure tendency: 0.02 inches (0.7 hPa) lower than three hours ago
ob: KTCM 290258Z AUTO 04004KT 10SM CLR 28/08 A3004 RMK AO2 SLP174 T02810079 55007
cycle: 3

Station Type Date Time Source
KTCM TAF 2021/07/28 21:06 UTC NOAA

TAF KTCM 282100Z 2821/3003 34006KT 9999 FEW200 QNH3005INS
BECMG 2912/2913 VRB06KT 9999 SKC QNH3010INS
BECMG 2922/2923 01009KT 9999 SKC QNH3005INS TX31/2823Z TN11/2913Z

Example: see airport list